Time;durP1;ratioP1;P1;durP2;ratioP2;P2;SDS_P1;SDS_P2;PMS_P1;PMS_P2;Temp;Humidity;BMP_temperature;BMP_pressure;BME280_temperature;BME280_humidity;BME280_pressure;Samples;Min_cycle;Max_cycle;Signal;HPM_P1;HPM_P2
2022/06/22 00:02:02;;;;;;;7.65;2.20;;;18.10;86.20;;;14.78;83.84;100248.78;5060254;28;20044;-89
2022/06/22 00:04:33;;;;;;;4.82;2.10;;;18.10;86.20;;;14.74;84.15;100242.06;5066966;28;20131;-90
2022/06/22 00:07:08;;;;;;;7.40;2.40;;;18.10;86.40;;;14.72;84.96;100235.13;5068894;28;20067;-90
2022/06/22 00:09:37;;;;;;;4.97;2.22;;;18.00;86.60;;;14.69;85.61;100243.78;5056481;28;20045;-90
2022/06/22 00:12:08;;;;;;;6.72;2.38;;;18.00;86.90;;;14.68;85.21;100239.34;5061391;28;20048;-90
2022/06/22 00:14:45;;;;;;;7.45;2.40;;;18.00;86.80;;;14.73;84.39;100236.78;5060170;28;20044;-90
2022/06/22 00:17:20;;;;;;;10.55;2.50;;;18.00;86.50;;;14.77;83.32;100238.84;5065307;28;20068;-90
2022/06/22 00:19:48;;;;;;;7.68;2.25;;;18.00;86.00;;;14.85;83.46;100244.09;5062261;28;20072;-90
2022/06/22 00:22:24;;;;;;;6.55;2.63;;;18.00;86.00;;;14.81;83.78;100252.97;5062553;28;20037;-90
2022/06/22 00:24:58;;;;;;;8.32;2.38;;;18.00;86.40;;;14.77;84.11;100254.47;5070209;28;20048;-89
2022/06/22 00:27:35;;;;;;;9.85;2.53;;;17.90;86.50;;;14.70;84.27;100249.03;5070347;28;20045;-90
2022/06/22 00:30:28;;;;;;;7.03;2.33;;;17.90;86.50;;;14.67;84.85;100246.72;5063020;28;20044;-89
2022/06/22 00:33:16;;;;;;;5.78;2.08;;;17.90;86.80;;;14.59;86.00;100245.06;5063995;28;20033;-89
2022/06/22 00:35:55;;;;;;;5.95;2.17;;;17.90;87.40;;;14.54;86.75;100238.53;5068921;28;20052;-89
2022/06/22 00:38:29;;;;;;;6.82;2.38;;;17.80;87.70;;;14.51;86.47;100233.47;5062923;28;20040;-90
2022/06/22 00:41:02;;;;;;;9.27;2.30;;;17.80;87.70;;;14.44;86.72;100226.16;5063221;28;20051;-90
2022/06/22 00:43:34;;;;;;;8.25;2.28;;;17.90;87.80;;;14.39;87.65;100217.75;5067770;28;20048;-90
2022/06/22 00:46:02;;;;;;;8.68;2.60;;;17.70;88.10;;;14.31;88.75;100211.69;5066065;28;20047;-89
2022/06/22 00:48:33;;;;;;;5.90;2.53;;;17.70;88.50;;;14.26;88.09;100207.69;5066201;28;20200;-90
2022/06/22 00:51:03;;;;;;;;;;;17.70;88.40;;;14.23;87.92;100215.50;5061672;28;20049;-89
2022/06/22 00:53:41;;;;;;;6.43;2.22;;;17.60;88.20;;;14.26;88.01;100215.06;5059691;28;19951;-90
2022/06/22 00:56:23;;;;;;;6.32;2.50;;;17.70;88.30;;;14.24;87.89;100220.75;5068486;28;20041;-89
2022/06/22 00:59:03;;;;;;;7.43;2.55;;;17.60;88.10;;;14.24;87.88;100219.91;5066005;28;20052;-89
2022/06/22 01:01:42;;;;;;;7.10;2.47;;;17.50;88.10;;;14.21;88.80;100214.88;5059414;28;20040;-90
2022/06/22 01:04:15;;;;;;;9.02;2.58;;;17.60;88.60;;;14.16;88.69;100211.94;5068283;28;20117;-89
2022/06/22 01:06:50;;;;;;;6.40;2.50;;;17.50;88.70;;;14.11;89.12;100209.88;5060966;28;20052;-89
2022/06/22 01:09:28;;;;;;;4.13;2.00;;;17.50;88.90;;;14.05;89.81;100210.69;5053694;28;20044;-89
2022/06/22 01:12:22;;;;;;;6.97;2.47;;;17.40;89.00;;;13.98;89.81;100207.16;5063851;28;20512;-89
2022/06/22 01:15:08;;;;;;;6.75;2.78;;;17.40;89.00;;;13.95;90.17;100211.16;5059056;28;20037;-89
2022/06/22 01:17:44;;;;;;;6.22;2.40;;;17.40;89.20;;;13.87;90.33;100203.19;5064390;28;20044;-89
2022/06/22 01:20:21;;;;;;;8.35;2.42;;;17.40;89.50;;;13.86;90.56;100202.34;5062033;28;20052;-90
2022/06/22 01:23:40;;;;;;;6.38;2.67;;;17.30;89.50;;;13.81;90.75;100204.03;5065705;28;20051;-90
2022/06/22 01:26:30;;;;;;;6.32;2.60;;;17.30;89.60;;;13.74;91.17;100200.47;5068375;28;20050;-89
2022/06/22 01:29:07;;;;;;;6.57;2.25;;;17.20;89.60;;;13.69;91.87;100212.91;5067536;28;20048;-89
2022/06/22 01:31:35;;;;;;;6.40;2.42;;;17.20;90.00;;;13.66;91.54;100218.78;5067674;28;20064;-89
2022/06/22 01:34:03;;;;;;;5.28;2.40;;;17.10;89.90;;;13.63;91.98;100227.44;5066024;28;20147;-89
2022/06/22 01:36:34;;;;;;;6.28;2.53;;;17.10;90.10;;;13.64;91.78;100214.59;5068510;28;20051;-90
2022/06/22 01:39:04;;;;;;;7.18;2.47;;;17.10;90.20;;;13.63;92.33;100219.22;5067729;28;20098;-89
2022/06/22 01:41:36;;;;;;;6.43;2.20;;;17.10;90.40;;;13.61;92.35;100210.41;5069451;28;20043;-89
2022/06/22 01:44:12;;;;;;;4.90;2.20;;;17.10;90.40;;;13.55;93.08;100189.34;5068441;28;20043;-88
2022/06/22 01:47:09;;;;;;;5.18;2.22;;;17.00;90.50;;;13.52;92.75;100184.31;5064447;28;20485;-89
2022/06/22 01:49:45;;;;;;;7.28;2.55;;;17.00;90.40;;;13.47;92.73;100186.84;5054825;28;20036;-89
2022/06/22 01:52:18;;;;;;;5.25;2.10;;;17.00;90.40;;;13.43;93.35;100196.53;5063956;28;20136;-89
2022/06/22 01:54:55;;;;;;;6.97;2.20;;;17.00;90.60;;;13.42;93.44;100206.63;5065174;28;20048;-89
2022/06/22 01:57:30;;;;;;;5.75;2.42;;;16.90;90.70;;;13.42;93.85;100195.69;5053678;28;20040;-90
2022/06/22 02:00:05;;;;;;;5.95;2.45;;;16.90;90.90;;;13.39;94.00;100195.28;5072770;28;20132;-89
2022/06/22 02:02:45;;;;;;;6.80;2.53;;;16.90;90.80;;;13.37;94.32;100192.75;5057438;28;20118;-90
2022/06/22 02:05:22;;;;;;;5.13;2.40;;;16.90;91.00;;;13.40;94.20;100196.94;5066597;28;20139;-89
2022/06/22 02:07:58;;;;;;;8.90;2.55;;;16.90;91.00;;;13.48;93.75;100204.94;5065118;28;20048;-89
2022/06/22 02:10:40;;;;;;;8.48;2.67;;;16.90;91.10;;;13.49;94.02;100198.41;5062178;28;20082;-89
2022/06/22 02:13:22;;;;;;;5.13;2.22;;;16.90;91.10;;;13.41;94.58;100201.34;5065679;28;20450;-89
2022/06/22 02:16:01;;;;;;;6.47;2.60;;;16.90;91.40;;;13.33;94.91;100201.56;5060937;28;20129;-89
2022/06/22 02:18:36;;;;;;;5.80;2.22;;;16.80;91.30;;;13.29;94.95;100201.97;5056202;28;20133;-89
2022/06/22 02:21:22;;;;;;;8.57;2.38;;;16.80;91.40;;;13.28;95.08;100188.50;5067831;28;20048;-89
2022/06/22 02:24:00;;;;;;;6.40;2.50;;;16.80;91.40;;;13.32;94.36;100184.31;5061021;28;20037;-89
2022/06/22 02:26:35;;;;;;;5.82;2.40;;;16.70;91.50;;;13.27;95.16;100193.13;5059504;28;20044;-89
2022/06/22 02:29:02;;;;;;;5.90;2.53;;;16.80;91.70;;;13.32;95.33;100200.72;5065836;28;20494;-89
2022/06/22 02:31:33;;;;;;;5.88;2.47;;;16.70;91.70;;;13.39;95.06;100200.72;5059931;28;20528;-89
2022/06/22 02:34:02;;;;;;;8.30;2.80;;;16.70;91.80;;;13.35;95.87;100197.56;5070246;28;20075;-89
2022/06/22 02:36:33;;;;;;;7.97;2.72;;;16.70;92.20;;;13.34;95.66;100198.63;5070722;28;20052;-89
2022/06/22 02:39:03;;;;;;;;;;;16.70;92.30;;;13.29;95.50;100207.44;5069985;28;20119;-89
2022/06/22 02:44:31;;;;;;;7.85;2.80;;;16.70;92.30;;;13.18;96.51;100199.84;5064254;28;20085;-89
2022/06/22 02:47:17;;;;;;;7.13;2.42;;;16.60;92.30;;;13.12;96.84;100189.78;5063313;28;20083;-89
2022/06/22 02:49:49;;;;;;;9.30;2.67;;;16.60;92.40;;;13.13;96.39;100185.97;5065229;28;20051;-89
2022/06/22 02:52:17;;;;;;;5.30;2.63;;;16.60;92.50;;;13.07;97.48;100173.16;5068417;28;20115;-89
2022/06/22 02:54:49;;;;;;;6.88;2.55;;;16.60;92.70;;;13.07;96.85;100175.88;5071121;28;20041;-89
2022/06/22 02:57:26;;;;;;;6.15;2.63;;;16.50;92.70;;;13.02;96.47;100162.00;5077249;28;20045;-89
2022/06/22 02:59:54;;;;;;;5.85;2.50;;;16.50;92.40;;;13.01;97.13;100168.53;5062938;28;20052;-88
2022/06/22 03:02:25;;;;;;;5.63;2.38;;;16.50;92.40;;;12.96;97.17;100162.84;5070199;28;20037;-89
2022/06/22 03:04:55;;;;;;;5.55;2.50;;;16.50;92.60;;;12.97;97.09;100159.91;5072044;28;20078;-89
2022/06/22 03:07:23;;;;;;;6.30;2.60;;;16.50;92.60;;;12.91;97.48;100156.13;5071237;28;20512;-89
2022/06/22 03:09:52;;;;;;;8.05;2.40;;;16.50;92.70;;;12.91;97.50;100158.03;5068022;28;20554;-88
2022/06/22 03:12:20;;;;;;;7.47;2.53;;;16.40;92.80;;;12.86;97.26;100172.28;5056292;28;20129;-88
2022/06/22 03:14:54;;;;;;;8.95;2.45;;;16.40;92.60;;;12.86;97.49;100187.84;5056382;28;20132;-89
2022/06/22 03:17:29;;;;;;;6.57;2.70;;;16.40;92.80;;;12.87;97.62;100193.09;5070602;28;20495;-89
2022/06/22 03:20:03;;;;;;;8.55;2.63;;;16.30;93.00;;;12.91;97.46;100201.72;5072087;28;20123;-88
2022/06/22 03:22:34;;;;;;;7.30;2.60;;;16.30;93.10;;;12.98;97.19;100212.66;5070725;28;20125;-88
2022/06/22 03:25:06;;;;;;;;;;;16.30;93.10;;;12.99;97.66;100217.06;5070115;28;20064;-89
2022/06/22 03:27:39;;;;;;;6.53;2.70;;;16.30;93.20;;;13.01;97.40;100204.88;5057729;28;20027;-89
2022/06/22 03:30:15;;;;;;;7.45;2.65;;;16.40;93.30;;;13.02;97.74;100202.97;5070444;28;20032;-89
2022/06/22 03:32:49;;;;;;;6.22;2.50;;;16.40;93.50;;;12.96;97.74;100201.09;5069378;28;20554;-89
2022/06/22 03:35:23;;;;;;;6.18;2.72;;;16.30;93.50;;;12.94;97.69;100187.63;5070196;28;20413;-89
2022/06/22 03:37:58;;;;;;;10.23;2.50;;;16.30;93.30;;;12.91;98.09;100177.16;5068839;28;20059;-89
2022/06/22 03:40:36;;;;;;;7.07;2.60;;;16.30;93.40;;;12.84;98.27;100170.81;5064785;28;20123;-89
2022/06/22 03:43:11;;;;;;;6.18;2.40;;;16.30;93.50;;;12.84;98.36;100171.66;5066528;28;20067;-88
2022/06/22 03:45:44;;;;;;;8.48;2.85;;;16.30;93.60;;;12.84;98.81;100171.66;5069549;28;20048;-88
2022/06/22 03:48:21;;;;;;;5.70;2.53;;;16.30;93.80;;;12.88;98.78;100172.91;5064656;28;20040;-90
2022/06/22 03:50:55;;;;;;;6.50;2.63;;;16.30;94.00;;;12.88;99.12;100164.72;5074071;28;20465;-86
2022/06/22 03:53:33;;;;;;;6.80;2.45;;;16.20;94.20;;;12.90;99.04;100162.63;5056319;28;20040;-83
2022/06/22 03:56:12;;;;;;;5.47;2.80;;;16.20;94.30;;;12.93;98.89;100157.78;5080750;28;20040;-86
2022/06/22 03:58:42;;;;;;;6.72;2.55;;;16.20;94.30;;;12.96;99.50;100157.38;5078591;28;20053;-85
2022/06/22 04:01:11;;;;;;;5.25;2.50;;;16.20;94.60;;;12.98;99.49;100161.56;5090153;28;20060;-85
2022/06/22 04:03:41;;;;;;;5.72;2.63;;;16.20;94.70;;;13.03;99.57;100158.25;5087684;28;21516;-85
2022/06/22 04:06:08;;;;;;;6.82;2.60;;;16.20;94.90;;;13.08;99.94;100161.19;5072113;28;20033;-86
2022/06/22 04:08:40;;;;;;;8.35;2.60;;;16.20;95.30;;;13.09;100.00;100152.75;5066391;28;20044;-86
2022/06/22 04:11:13;;;;;;;7.05;2.83;;;16.30;95.60;;;13.18;100.00;100156.13;5066429;28;20045;-86
2022/06/22 04:13:46;;;;;;;6.15;2.40;;;16.30;95.70;;;13.23;100.00;100161.81;5067430;28;20054;-85
2022/06/22 04:16:18;;;;;;;5.07;2.55;;;16.30;96.00;;;13.23;100.00;100159.09;5074369;28;20569;-85
2022/06/22 04:18:52;;;;;;;10.10;2.55;;;16.30;95.90;;;13.34;100.00;100159.50;5065699;28;20033;-85
2022/06/22 04:21:26;;;;;;;5.97;2.60;;;16.30;96.10;;;13.41;100.00;100160.34;5057229;28;20230;-85
2022/06/22 04:23:59;;;;;;;6.75;2.67;;;16.30;96.30;;;13.52;100.00;100161.59;5072117;28;20044;-85
2022/06/22 04:26:31;;;;;;;5.53;2.65;;;16.40;96.40;;;13.65;100.00;100169.75;5070597;28;20383;-85
2022/06/22 04:29:06;;;;;;;6.20;2.80;;;16.40;97.00;;;13.77;100.00;100178.19;5065756;28;20045;-85
2022/06/22 04:31:38;;;;;;;5.63;2.70;;;16.40;96.90;;;13.95;100.00;100172.84;5064492;28;20049;-85
2022/06/22 04:34:13;;;;;;;7.72;3.28;;;16.50;97.10;;;14.18;99.54;100182.47;5062678;28;20048;-85
2022/06/22 04:36:45;;;;;;;7.85;3.03;;;16.60;97.10;;;14.46;98.49;100179.38;5064874;28;20051;-85
2022/06/22 04:39:20;;;;;;;9.13;3.42;;;16.70;97.10;;;14.76;98.18;100182.41;5070286;28;20111;-85
2022/06/22 04:41:48;;;;;;;5.95;3.20;;;16.80;97.30;;;15.04;96.57;100178.41;5071051;28;20060;-84
2022/06/22 04:44:20;;;;;;;5.65;3.05;;;17.00;97.10;;;15.31;93.94;100178.22;5071256;28;20039;-84
2022/06/22 04:46:51;;;;;;;9.43;3.30;;;17.10;96.50;;;15.69;91.53;100185.44;5058954;28;20041;-84
2022/06/22 04:49:27;;;;;;;9.25;3.67;;;17.30;95.50;;;15.97;91.04;100177.59;5064543;28;20115;-84
2022/06/22 04:51:59;;;;;;;8.85;4.20;;;17.40;95.50;;;16.21;88.72;100174.97;5060634;28;20040;-83
2022/06/22 04:54:32;;;;;;;7.28;3.72;;;17.50;95.00;;;16.36;89.22;100178.16;5056937;28;20070;-83
2022/06/22 04:57:07;;;;;;;10.45;3.97;;;17.70;95.30;;;16.57;85.58;100184.22;5056519;28;20045;-83
2022/06/22 04:59:34;;;;;;;8.68;3.90;;;17.80;93.90;;;16.64;84.40;100189.63;5064581;28;20120;-83
2022/06/22 05:02:06;;;;;;;10.68;4.32;;;17.90;92.90;;;16.59;83.15;100193.06;5068159;28;20044;-83
2022/06/22 05:04:39;;;;;;;10.85;4.15;;;18.00;92.00;;;16.55;84.25;100186.38;5063991;28;20442;-83
2022/06/22 05:07:29;;;;;;;10.27;4.53;;;18.00;92.30;;;16.53;86.89;100194.84;5067105;28;20068;-83
2022/06/22 05:10:04;;;;;;;8.63;3.97;;;18.10;93.00;;;16.54;83.58;100202.00;5067687;28;20045;-84
2022/06/22 05:12:47;;;;;;;8.60;4.00;;;18.20;91.70;;;16.71;82.33;100204.94;5061033;28;20037;-86
2022/06/22 05:15:29;;;;;;;12.48;3.67;;;18.30;91.10;;;16.85;80.80;100211.16;5063812;28;20032;-83
2022/06/22 05:17:59;;;;;;;9.75;4.30;;;18.40;90.20;;;16.97;79.40;100216.69;5066409;28;20040;-90
2022/06/22 05:20:36;;;;;;;8.70;3.63;;;18.40;89.40;;;17.08;78.75;100218.63;5067872;28;20074;-89
2022/06/22 05:23:05;;;;;;;10.38;4.15;;;18.50;89.30;;;17.14;77.90;100212.19;5054748;28;20045;-89
2022/06/22 05:25:35;;;;;;;10.30;3.92;;;18.60;88.70;;;17.23;79.07;100214.56;5067125;28;20047;-90
2022/06/22 05:28:13;;;;;;;12.02;4.15;;;18.60;89.30;;;17.24;77.65;100230.00;5066852;28;20051;-88
2022/06/22 05:30:46;;;;;;;11.55;4.10;;;18.60;88.80;;;17.24;76.92;100227.25;5068918;28;20045;-88
2022/06/22 05:33:21;;;;;;;10.15;4.50;;;18.60;88.30;;;17.18;75.57;100223.53;5065769;28;20056;-88
2022/06/22 05:35:54;;;;;;;11.65;3.97;;;18.70;87.50;;;17.17;75.19;100217.22;5051989;28;20068;-89
2022/06/22 05:38:23;;;;;;;10.27;4.35;;;18.70;86.90;;;17.16;74.80;100217.44;5052932;28;20140;-86
2022/06/22 05:40:53;;;;;;;11.52;4.10;;;18.60;86.40;;;17.11;76.33;100218.13;5070044;28;20044;-86
2022/06/22 05:43:29;;;;;;;13.73;3.95;;;18.70;86.90;;;17.26;77.58;100214.94;5055792;28;20065;-86
2022/06/22 05:46:02;;;;;;;9.45;4.03;;;18.70;87.80;;;17.33;76.39;100218.44;5065840;28;20068;-82
2022/06/22 05:48:33;;;;;;;10.88;3.95;;;18.70;87.80;;;17.36;75.84;100217.97;5057548;28;20045;-83
2022/06/22 05:51:14;;;;;;;9.88;3.90;;;18.70;87.60;;;17.43;77.23;100223.34;5058481;28;20139;-85
2022/06/22 05:53:50;;;;;;;8.85;4.63;;;18.80;87.90;;;17.45;73.88;100223.13;5059927;28;20048;-81
2022/06/22 05:56:24;;;;;;;8.95;4.05;;;18.80;86.30;;;17.53;75.00;100231.84;5053978;28;20123;-85
2022/06/22 05:59:06;;;;;;;12.55;4.40;;;18.90;87.10;;;19.77;68.16;100223.97;5062123;28;20039;-85
2022/06/22 06:01:48;;;;;;;10.05;3.92;;;19.20;86.60;;;23.70;56.53;100218.84;5056254;28;20046;-85
2022/06/22 06:04:27;;;;;;;9.68;3.97;;;19.60;86.00;;;25.51;49.15;100212.22;5059664;28;20190;-85
2022/06/22 06:07:02;;;;;;;13.95;4.00;;;20.10;84.20;;;25.93;45.28;100224.69;5063276;28;20478;-84
2022/06/22 06:09:37;;;;;;;10.70;3.95;;;20.40;81.70;;;25.87;44.92;100225.00;5056491;28;20124;-82
2022/06/22 06:12:13;;;;;;;7.78;3.78;;;20.70;80.50;;;25.51;45.02;100228.97;5061852;28;20033;-82
2022/06/22 06:19:21;;;;;;;;;;;;;;;;;;;;;
2022/06/22 06:22:04;;;;;;;9.65;4.10;;;21.60;76.80;;;30.70;34.53;100227.63;5007579;28;20045;-82
2022/06/22 06:27:34;;;;;;;10.02;4.03;;;22.10;76.20;;;31.47;32.25;100223.25;5064838;28;20454;-82
2022/06/22 06:27:36;;;;;;;8.07;3.70;;;22.40;74.80;;;32.49;30.38;100217.97;5067896;28;20048;-82
2022/06/22 06:30:15;;;;;;;8.95;3.20;;;22.70;73.00;;;33.10;28.98;100209.97;5069426;28;20132;-81
2022/06/22 06:32:51;;;;;;;9.98;3.53;;;23.00;72.50;;;32.95;29.23;100212.56;5068132;28;20055;-80
2022/06/22 06:35:25;;;;;;;6.80;3.17;;;23.10;72.30;;;31.91;29.64;100209.06;5069807;28;20117;-80
2022/06/22 06:38:13;;;;;;;8.15;3.10;;;23.20;70.70;;;27.91;35.52;100220.53;5069617;28;20128;-80
2022/06/22 06:40:49;;;;;;;7.07;2.97;;;23.20;70.30;;;25.51;40.89;100222.53;5068052;28;20058;-80
2022/06/22 06:43:36;;;;;;;9.85;3.50;;;23.20;70.90;;;24.00;44.64;100225.50;5069444;28;20059;-81
2022/06/22 06:46:11;;;;;;;9.65;2.70;;;23.10;71.00;;;23.15;48.20;100231.59;5069565;28;20124;-76
2022/06/22 06:48:41;;;;;;;9.32;3.15;;;23.00;72.40;;;22.56;50.70;100239.22;5069100;28;20485;-77
2022/06/22 06:51:20;;;;;;;9.02;3.35;;;22.90;73.10;;;22.32;53.33;100229.66;5069547;28;20053;-76
2022/06/22 06:53:56;;;;;;;11.30;4.63;;;22.80;74.50;;;22.08;53.25;100232.81;5069501;28;20056;-76
2022/06/22 06:56:35;;;;;;;9.07;4.03;;;22.70;74.00;;;22.00;53.77;100225.03;5069555;28;20528;-76
2022/06/22 06:59:06;;;;;;;13.68;4.47;;;22.60;74.10;;;21.74;53.92;100221.25;5068890;28;20044;-77
2022/06/22 07:01:39;;;;;;;12.52;4.60;;;22.50;73.70;;;21.61;55.44;100228.91;5069471;28;20040;-77
2022/06/22 07:04:17;;;;;;;9.82;4.20;;;22.40;74.70;;;21.67;55.06;100205.69;5069522;28;20561;-77
2022/06/22 07:06:48;;;;;;;8.57;3.90;;;22.40;74.60;;;21.57;54.68;100213.94;5069562;28;20043;-77
2022/06/22 07:09:27;;;;;;;10.13;4.18;;;22.30;74.20;;;21.48;55.26;100212.75;5067416;28;20135;-77
2022/06/22 07:12:04;;;;;;;9.23;3.85;;;22.30;74.40;;;21.52;55.76;100213.06;5069408;28;20056;-76
2022/06/22 07:14:36;;;;;;;13.55;4.38;;;22.20;75.50;;;21.37;55.71;100209.03;5069321;28;20071;-77
2022/06/22 07:17:09;;;;;;;9.88;4.32;;;22.20;75.00;;;21.36;55.74;100198.22;5069332;28;20047;-76
2022/06/22 07:19:41;;;;;;;6.28;3.15;;;22.10;74.70;;;21.61;56.75;100197.59;5071092;28;20039;-77
2022/06/22 07:22:21;;;;;;;14.57;4.18;;;22.10;76.10;;;21.71;56.17;100206.00;5073011;28;20101;-77
2022/06/22 07:24:56;;;;;;;11.93;3.85;;;22.20;76.20;;;21.67;56.23;100193.78;5072920;28;20072;-77
2022/06/22 07:27:33;;;;;;;8.93;3.88;;;22.10;76.00;;;21.57;56.19;100194.56;5072639;28;20167;-77
2022/06/22 07:30:06;;;;;;;7.38;3.38;;;22.10;76.00;;;21.66;59.25;100194.88;5072399;28;20044;-77
2022/06/22 07:32:40;;;;;;;12.75;4.15;;;22.10;77.80;;;21.64;57.92;100189.59;5072717;28;20453;-77
2022/06/22 07:35:16;;;;;;;13.00;4.10;;;22.10;77.00;;;21.54;56.19;100194.25;5072644;28;20048;-77
2022/06/22 07:37:56;;;;;;;12.00;4.07;;;22.10;75.50;;;21.34;56.53;100190.16;5072599;28;20055;-77
2022/06/22 07:40:29;;;;;;;6.80;3.60;;;22.10;75.40;;;21.42;57.62;100186.94;5072387;28;20584;-77
2022/06/22 07:42:59;;;;;;;8.85;3.83;;;22.10;76.30;;;21.54;57.36;100191.47;5072648;28;20032;-77
2022/06/22 07:45:29;;;;;;;8.47;3.70;;;22.10;77.10;;;21.31;57.34;100184.34;5071248;28;20135;-77
2022/06/22 07:48:02;;;;;;;9.07;4.10;;;22.10;75.80;;;21.35;56.71;100186.31;5072478;28;20048;-76
2022/06/22 07:50:34;;;;;;;7.97;3.75;;;22.10;75.60;;;21.24;57.11;100173.47;5072338;28;20115;-77
2022/06/22 07:53:07;;;;;;;9.15;3.50;;;22.00;75.60;;;21.24;56.38;100174.31;5072321;28;20040;-77
2022/06/22 07:55:47;;;;;;;9.70;3.63;;;22.00;75.00;;;21.15;55.55;100173.16;5072236;28;20094;-77
2022/06/22 07:58:26;;;;;;;8.95;3.30;;;22.00;74.70;;;21.26;56.93;100182.34;5071762;28;20053;-77
2022/06/22 08:00:58;;;;;;;8.02;3.30;;;22.00;75.10;;;21.25;58.69;100180.69;5061677;28;20578;-77
2022/06/22 08:03:34;;;;;;;9.95;4.00;;;22.00;76.70;;;21.38;57.99;100168.31;5052087;28;20073;-77
2022/06/22 08:06:08;;;;;;;13.52;3.90;;;22.00;76.60;;;21.46;58.08;100168.72;5052209;28;20041;-77
2022/06/22 08:08:41;;;;;;;9.43;3.30;;;22.00;77.10;;;21.56;57.81;100169.88;5051534;28;20048;-77
2022/06/22 08:11:20;;;;;;;9.15;3.20;;;22.10;76.70;;;21.62;57.46;100177.13;5052095;28;20045;-77
2022/06/22 08:13:53;;;;;;;8.80;3.30;;;22.10;76.40;;;21.51;56.50;100178.16;5052011;28;20144;-77
2022/06/22 08:16:27;;;;;;;10.85;3.63;;;22.10;75.30;;;21.69;58.46;100180.50;5051900;28;20111;-77
2022/06/22 08:18:55;;;;;;;8.50;3.08;;;22.20;78.30;;;21.69;57.55;100193.53;5051658;28;20116;-77
2022/06/22 08:21:24;;;;;;;9.30;3.35;;;22.30;76.80;;;21.64;56.77;100188.78;5051940;28;20151;-77
2022/06/22 08:23:52;;;;;;;10.05;3.40;;;22.30;76.00;;;21.58;55.87;100189.84;5050495;28;20135;-77
2022/06/22 08:26:28;;;;;;;9.63;3.03;;;22.20;74.70;;;21.48;56.37;100196.97;5050285;28;20411;-77
2022/06/22 08:28:56;;;;;;;8.88;3.17;;;22.20;74.70;;;21.45;55.20;100197.47;5051552;28;20072;-77
2022/06/22 08:31:26;;;;;;;6.55;2.67;;;22.20;73.90;;;21.57;55.14;100199.22;5050488;28;20049;-77
2022/06/22 08:33:59;;;;;;;10.57;2.72;;;22.30;75.20;;;21.59;55.09;100199.81;5051787;28;20777;-77
2022/06/22 08:36:34;;;;;;;8.05;2.45;;;22.20;74.30;;;21.64;56.26;100197.06;5051545;28;20515;-77
2022/06/22 08:39:09;;;;;;;6.18;3.00;;;22.30;75.30;;;21.61;54.19;100192.91;5051572;28;20087;-77
2022/06/22 08:41:53;;;;;;;8.80;2.90;;;22.30;73.30;;;21.61;54.30;100190.16;5051521;28;20119;-77
2022/06/22 08:44:51;;;;;;;8.55;3.05;;;22.30;72.80;;;21.75;55.02;100195.22;5051500;28;20128;-78
2022/06/22 08:48:04;;;;;;;11.60;2.63;;;22.30;73.90;;;21.91;57.16;100194.19;5051574;28;20040;-77
2022/06/22 08:50:57;;;;;;;7.05;2.92;;;22.40;75.80;;;21.95;55.58;100200.91;5040378;28;20528;-77
2022/06/22 08:53:59;;;;;;;10.38;2.72;;;22.50;74.60;;;21.96;54.41;100193.41;5051302;28;20045;-77
2022/06/22 08:56:39;;;;;;;6.68;2.42;;;22.50;74.20;;;22.08;56.77;100195.97;5051422;28;20048;-77
2022/06/22 08:59:33;;;;;;;8.30;2.47;;;22.50;76.10;;;22.12;55.24;100189.59;5050798;28;20036;-78
2022/06/22 09:02:34;;;;;;;5.47;2.45;;;22.60;74.50;;;22.18;55.64;100183.00;5051173;28;20044;-77
2022/06/22 09:05:22;;;;;;;6.93;2.65;;;22.60;74.20;;;22.16;53.73;100187.97;5051117;28;20041;-77
2022/06/22 09:08:32;;;;;;;7.75;2.50;;;22.70;72.80;;;22.13;52.34;100185.75;5050687;28;20049;-77
2022/06/22 09:11:18;;;;;;;9.23;2.40;;;22.60;72.50;;;22.11;52.42;100193.50;5050997;28;20212;-77
2022/06/22 09:14:21;;;;;;;9.35;2.60;;;22.70;71.60;;;22.12;52.19;100189.59;5050943;28;20474;-77
2022/06/22 09:17:05;;;;;;;6.80;2.42;;;22.60;71.50;;;22.18;53.56;100187.69;5050612;28;20045;-77
2022/06/22 09:20:19;;;;;;;6.28;2.22;;;22.70;73.20;;;22.19;52.25;100189.38;5050428;28;20112;-77
2022/06/22 09:22:56;;;;;;;9.07;2.15;;;22.70;72.20;;;22.21;51.99;100210.16;5050644;28;20116;-77
2022/06/22 09:25:30;;;;;;;8.20;2.20;;;22.70;70.90;;;22.22;51.61;100208.25;5050765;28;20554;-77
2022/06/22 09:28:04;;;;;;;9.82;2.60;;;22.70;70.60;;;22.11;51.54;100203.75;5050543;28;20135;-77
2022/06/22 09:31:02;;;;;;;6.55;2.30;;;22.70;69.90;;;22.22;51.95;100203.53;5050469;28;20037;-77
2022/06/22 09:34:00;;;;;;;12.57;2.53;;;22.70;71.60;;;22.25;51.77;100207.72;5050523;28;20044;-77
2022/06/22 09:36:58;;;;;;;7.60;2.50;;;22.80;70.70;;;22.37;54.16;100208.34;5050326;28;20045;-77
2022/06/22 09:40:03;;;;;;;8.55;2.22;;;22.80;73.50;;;22.42;52.79;100215.84;5050077;28;20048;-77
2022/06/22 09:43:17;;;;;;;6.40;2.25;;;22.90;72.20;;;22.41;51.47;100211.41;5052925;28;20052;-77
2022/06/22 09:46:40;;;;;;;6.28;2.35;;;22.90;70.90;;;22.31;51.49;100214.13;5063231;28;20058;-77
2022/06/22 09:49:33;;;;;;;4.85;2.15;;;22.90;70.30;;;22.34;51.78;100214.41;5047672;28;20084;-78
2022/06/22 09:52:36;;;;;;;7.88;2.55;;;22.90;70.70;;;22.36;52.56;100212.22;5062038;28;20047;-83
2022/06/22 09:58:55;;;;;;;9.35;2.15;;;22.90;69.90;;;22.36;51.99;100206.66;5067920;28;20040;-83
2022/06/22 10:01:34;;;;;;;6.10;2.08;;;22.90;69.80;;;22.35;51.53;100193.94;5069414;28;20036;-83
2022/06/22 10:04:53;;;;;;;9.10;2.50;;;22.90;70.00;;;22.42;51.98;100193.66;5064662;28;20045;-83
2022/06/22 10:07:54;;;;;;;6.97;2.40;;;22.90;70.80;;;22.45;52.02;100193.13;4994310;28;20058;-83
2022/06/22 10:10:38;;;;;;;8.40;2.13;;;23.00;71.00;;;22.47;52.80;100185.38;5065006;28;20491;-84
2022/06/22 10:13:38;;;;;;;7.03;2.58;;;23.00;71.60;;;22.49;55.00;100191.47;5062318;28;20159;-83
2022/06/22 10:16:43;;;;;;;7.43;2.20;;;23.00;71.10;;;22.49;53.72;100176.78;5064727;28;20560;-83
2022/06/22 10:19:36;;;;;;;6.35;2.15;;;23.00;72.20;;;22.49;50.56;100177.59;5064979;28;20048;-84
2022/06/22 10:22:19;;;;;;;4.88;2.42;;;23.00;69.30;;;22.50;49.67;100179.25;5059670;28;20114;-83
2022/06/22 10:25:26;;;;;;;8.07;2.40;;;23.00;68.60;;;22.50;48.82;100172.88;5058597;28;20544;-83
2022/06/22 10:28:18;;;;;;;6.65;2.25;;;23.00;67.50;;;22.49;49.76;100165.69;5066112;28;20052;-84
2022/06/22 10:30:57;;;;;;;7.43;2.13;;;23.00;68.10;;;22.53;50.93;100167.63;5065363;28;20056;-85
2022/06/22 10:34:00;;;;;;;8.77;2.47;;;23.00;69.50;;;22.52;48.59;100157.63;5061939;28;20110;-85
2022/06/22 10:37:04;;;;;;;6.30;2.50;;;23.00;67.50;;;22.49;50.26;100149.88;5059111;28;20040;-84
2022/06/22 10:39:52;;;;;;;7.28;2.30;;;23.00;69.40;;;22.53;50.71;100151.00;5059228;28;20102;-85
2022/06/22 10:45:43;;;;;;;7.67;2.43;;;23.00;68.00;;;22.52;51.36;100146.53;5066528;28;20048;-86
2022/06/22 10:48:51;;;;;;;6.00;2.00;;;23.00;70.10;;;22.56;49.64;100136.59;5068154;28;20055;-86
2022/06/22 10:51:36;;;;;;;6.72;2.00;;;23.00;68.70;;;22.59;47.93;100138.78;5065241;28;20044;-86
2022/06/22 10:54:54;;;;;;;9.18;2.63;;;23.00;66.40;;;22.55;49.72;100134.09;5069255;28;20045;-85
2022/06/22 10:57:40;;;;;;;6.18;2.40;;;23.00;67.90;;;22.54;48.57;100146.25;5024104;28;20402;-86
2022/06/22 11:00:20;;;;;;;7.10;2.40;;;23.10;66.70;;;22.55;47.62;100148.78;5019543;28;20046;-87
2022/06/22 11:03:35;;;;;;;7.88;2.10;;;23.10;66.50;;;22.59;50.16;100147.13;5054358;28;20525;-86
2022/06/22 11:06:31;;;;;;;6.43;2.40;;;23.10;68.70;;;22.70;49.74;100144.38;5069735;28;20470;-84
2022/06/22 11:09:24;;;;;;;4.35;1.90;;;23.10;68.30;;;22.75;48.15;100138.81;5073739;28;20505;-85
2022/06/22 11:12:25;;;;;;;9.27;2.35;;;23.20;66.50;;;22.84;49.71;100139.94;5069656;28;20601;-85
2022/06/22 11:15:21;;;;;;;6.30;2.35;;;23.30;68.00;;;22.86;48.11;100148.00;5060929;28;20383;-84
2022/06/22 11:18:13;;;;;;;6.90;2.35;;;23.30;66.70;;;22.72;49.09;100142.16;5060303;28;20500;-85